Language: 


Des rapports , des résumés tant et plus, au choix de chacun....


Données Historiques de Météogheer
Journalier Rapport pour Janvier 4, 2018 Unitée:  Les deux    Impériale   Métrique
Suivant Jour »
Journalier Hebdomadaire Mensuel Annuel Sur mesure
  Max: Min: Moyenne:
Température: 55.6 °F /  13.1 °C 32 °F /  0.0 °C 49.1 °F /  9.5 °C
Point de rosée: 55.4 °F /  13.0 °C 41 °F /  5.0 °C 46.2 °F /  7.9 °C
Humidité: 98% 0% 88%
Vent: 37.4mph /  60.2km/h - 12.6mph /  20.3km/h
Rafales: 44.1mph /  71.0km/h - -
Vent- - WSW
Pression: 29.6 in /  1001.9 hPa 0 in /  0.0 hPa -
Pluie: 0.52 in /  13.2 mm    
Historical Graphs
 
 
Données tabulaires pour Janvier 4, 2018
Heure Température Point de rosée Pression Vent Vent Rafales Humidité Pluie Taux (Horaire) Conditions
00:00 47.1 °F /  8.4 °C 42.8 °F /  6.0 °C 29.6in /  1000.9hPa West 10.1mph /  16.3km/h 14.1mph /  22.7km/h 82% 0in /  0.0mm
00:08 47.1 °F /  8.4 °C 42.8 °F /  6.0 °C 29.6in /  1000.9hPa West 9.8mph /  15.8km/h 15.2mph /  24.5km/h 82% 0in /  0.0mm
00:11 47.1 °F /  8.4 °C 42.8 °F /  6.0 °C 29.6in /  1001.9hPa WSW 14.5mph /  23.3km/h 15.2mph /  24.5km/h 82% 0in /  0.0mm
00:13 47.1 °F /  8.4 °C 42.8 °F /  6.0 °C 29.6in /  1001.9hPa WSW 17.2mph /  27.7km/h 17.2mph /  27.7km/h 82% 0in /  0.0mm
00:18 46.9 °F /  8.3 °C 42.8 °F /  6.0 °C 29.6in /  1001.9hPa West 9.2mph /  14.8km/h 17.2mph /  27.7km/h 83% 0in /  0.0mm
00:21 46.9 °F /  8.3 °C 42.8 °F /  6.0 °C 29.6in /  1001.9hPa West 12.8mph /  20.6km/h 17.2mph /  27.7km/h 83% 0in /  0.0mm
00:26 47.1 °F /  8.4 °C 42.8 °F /  6.0 °C 29.6in /  1000.9hPa WSW 14.8mph /  23.8km/h 16.8mph /  27.0km/h 83% 0in /  0.0mm
00:32 46.9 °F /  8.3 °C 42.8 °F /  6.0 °C 29.6in /  1000.9hPa WSW 9.6mph /  15.4km/h 16.8mph /  27.0km/h 83% 0in /  0.0mm
00:33 47.1 °F /  8.4 °C 42.8 °F /  6.0 °C 29.6in /  1000.9hPa WSW 14.5mph /  23.3km/h 17.2mph /  27.7km/h 83% 0in /  0.0mm
00:34 47.1 °F /  8.4 °C 42.8 °F /  6.0 °C 29.6in /  1000.9hPa West 16.1mph /  25.9km/h 17.2mph /  27.7km/h 83% 0in /  0.0mm
00:38 47.1 °F /  8.4 °C 42.8 °F /  6.0 °C 29.6in /  1000.9hPa WSW 8.7mph /  14.0km/h 17.2mph /  27.7km/h 84% 0in /  0.0mm
00:39 47.1 °F /  8.4 °C 42.8 °F /  6.0 °C 29.6in /  1000.9hPa WSW 8.1mph /  13.0km/h 17.2mph /  27.7km/h 84% 0in /  0.0mm
00:46 46.9 °F /  8.3 °C 42.8 °F /  6.0 °C 29.6in /  1000.9hPa West 10.7mph /  17.2km/h 15.7mph /  25.3km/h 84% 0in /  0.0mm
00:49 46.9 °F /  8.3 °C 42.8 °F /  6.0 °C 29.6in /  1000.9hPa West 13.9mph /  22.4km/h 15.7mph /  25.3km/h 84% 0in /  0.0mm
00:54 46.9 °F /  8.3 °C 42.8 °F /  6.0 °C 29.6in /  1000.9hPa WSW 7.4mph /  11.9km/h 14.8mph /  23.8km/h 84% 0in /  0.0mm
00:57 46.9 °F /  8.3 °C 42.8 °F /  6.0 °C 29.6in /  1000.9hPa West 10.7mph /  17.2km/h 13.9mph /  22.4km/h 84% 0in /  0.0mm
01:00 46.9 °F /  8.3 °C 42.8 °F /  6.0 °C 29.6in /  1000.9hPa WSW 8.1mph /  13.0km/h 14.8mph /  23.8km/h 84% 0in /  0.0mm
01:08 46.9 °F /  8.3 °C 42.8 °F /  6.0 °C 29.6in /  1000.9hPa WSW 10.5mph /  16.9km/h 16.1mph /  25.9km/h 84% 0in /  0.0mm
01:10 46.9 °F /  8.3 °C 42.8 °F /  6.0 °C 29.6in /  1000.9hPa WSW 10.7mph /  17.2km/h 16.1mph /  25.9km/h 84% 0in /  0.0mm
01:15 46.8 °F /  8.2 °C 42.8 °F /  6.0 °C 29.6in /  1000.9hPa WSW 11.4mph /  18.3km/h 16.1mph /  25.9km/h 84% 0in /  0.0mm
01:16 46.8 °F /  8.2 °C 42.8 °F /  6.0 °C 29.6in /  1000.9hPa WSW 8.7mph /  14.0km/h 16.1mph /  25.9km/h 84% 0in /  0.0mm
01:21 46.8 °F /  8.2 °C 42.8 °F /  6.0 °C 29.6in /  1000.9hPa West 10.7mph /  17.2km/h 15.9mph /  25.6km/h 85% 0in /  0.0mm
01:26 46.6 °F /  8.1 °C 42.8 °F /  6.0 °C 29.6in /  1000.9hPa WSW 9.8mph /  15.8km/h 15.9mph /  25.6km/h 85% 0in /  0.0mm
01:28 46.6 °F /  8.1 °C 42.8 °F /  6.0 °C 29.6in /  1000.9hPa West 8.5mph /  13.7km/h 10.7mph /  17.2km/h 85% 0in /  0.0mm
01:30 46.4 °F /  8.0 °C 42.8 °F /  6.0 °C 29.6in /  1000.9hPa WSW 8.5mph /  13.7km/h 10.7mph /  17.2km/h 85% 0in /  0.0mm
01:33 46.4 °F /  8.0 °C 42.8 °F /  6.0 °C 29.6in /  1000.9hPa WSW 7.4mph /  11.9km/h 10.5mph /  16.9km/h 85% 0in /  0.0mm
01:36 46.2 °F /  7.9 °C 42.8 °F /  6.0 °C 29.6in /  1000.9hPa WSW 8.9mph /  14.3km/h 11mph /  17.7km/h 85% 0in /  0.0mm
01:41 46.2 °F /  7.9 °C 42.8 °F /  6.0 °C 29.6in /  1000.9hPa WSW 7.8mph /  12.6km/h 11mph /  17.7km/h 86% 0in /  0.0mm
01:44 46.2 °F /  7.9 °C 42.8 °F /  6.0 °C 29.6in /  1000.9hPa WSW 9.8mph /  15.8km/h 11mph /  17.7km/h 86% 0in /  0.0mm
01:49 46.2 °F /  7.9 °C 42.8 °F /  6.0 °C 29.6in /  1000.9hPa WSW 8.5mph /  13.7km/h 11mph /  17.7km/h 87% 0in /  0.0mm
01:54 46.2 °F /  7.9 °C 42.8 °F /  6.0 °C 29.6in /  1000.9hPa WSW 9.6mph /  15.4km/h 12.5mph /  20.1km/h 87% 0in /  0.0mm
01:56 46.2 °F /  7.9 °C 42.8 °F /  6.0 °C 29.6in /  1000.9hPa WSW 7.8mph /  12.6km/h 12.5mph /  20.1km/h 87% 0in /  0.0mm
02:01 46.2 °F /  7.9 °C 42.8 °F /  6.0 °C 29.6in /  1000.9hPa WSW 8.5mph /  13.7km/h 12.5mph /  20.1km/h 88% 0in /  0.0mm
02:02 46.2 °F /  7.9 °C 42.8 °F /  6.0 °C 29.6in /  1000.9hPa WSW 8.1mph /  13.0km/h 12.5mph /  20.1km/h 88% 0in /  0.0mm
02:07 46.2 °F /  7.9 °C 42.8 °F /  6.0 °C 29.6in /  1000.9hPa WSW 9.8mph /  15.8km/h 12.8mph /  20.6km/h 89% 0in /  0.0mm
02:12 46.2 °F /  7.9 °C 42.8 °F /  6.0 °C 29.6in /  1000.9hPa WSW 7.6mph /  12.2km/h 12.8mph /  20.6km/h 89% 0in /  0.0mm
02:13 46.2 °F /  7.9 °C 42.8 °F /  6.0 °C 29.6in /  1000.9hPa WSW 7.8mph /  12.6km/h 12.8mph /  20.6km/h 89% 0in /  0.0mm
02:18 46.2 °F /  7.9 °C 42.8 °F /  6.0 °C 29.6in /  1000.9hPa WSW 8.1mph /  13.0km/h 13mph /  20.9km/h 89% 0in /  0.0mm
02:20 46.2 °F /  7.9 °C 42.8 °F /  6.0 °C 29.6in /  1000.9hPa WSW 7.8mph /  12.6km/h 13mph /  20.9km/h 90% 0in /  0.0mm
02:25 46.2 °F /  7.9 °C 42.8 °F /  6.0 °C 29.6in /  1000.9hPa WSW 8.5mph /  13.7km/h 13mph /  20.9km/h 90% 0in /  0.0mm
02:28 46.4 °F /  8.0 °C 44.6 °F /  7.0 °C 29.6in /  1000.9hPa West 10.7mph /  17.2km/h 13.9mph /  22.4km/h 90% 0in /  0.0mm
02:33 46.4 °F /  8.0 °C 44.6 °F /  7.0 °C 29.6in /  1000.9hPa WSW 8.1mph /  13.0km/h 13.9mph /  22.4km/h 90% 0in /  0.0mm
02:34 46.4 °F /  8.0 °C 44.6 °F /  7.0 °C 29.6in /  1000.9hPa WSW 8.7mph /  14.0km/h 13.9mph /  22.4km/h 90% 0in /  0.0mm
02:40 46.4 °F /  8.0 °C 44.6 °F /  7.0 °C 29.6in /  1000.9hPa WSW 6.3mph /  10.1km/h 12.1mph /  19.5km/h 90% 0in /  0.0mm
02:41 46.4 °F /  8.0 °C 44.6 °F /  7.0 °C 29.6in /  1000.9hPa WSW 10.3mph /  16.6km/h 10.5mph /  16.9km/h 90% 0in /  0.0mm
02:47 46.2 °F /  7.9 °C 42.8 °F /  6.0 °C 29.6in /  1000.9hPa WSW 7.2mph /  11.6km/h 10.5mph /  16.9km/h 90% 0in /  0.0mm
02:52 46.2 °F /  7.9 °C 42.8 °F /  6.0 °C 29.6in /  1000.9hPa WSW 7.6mph /  12.2km/h 10.1mph /  16.3km/h 90% 0in /  0.0mm
02:55 46.2 °F /  7.9 °C 42.8 °F /  6.0 °C 29.6in /  1000.9hPa WSW 8.1mph /  13.0km/h 9.8mph /  15.8km/h 90% 0in /  0.0mm
02:57 46.2 °F /  7.9 °C 42.8 °F /  6.0 °C 29.6in /  1000.9hPa WSW 8.7mph /  14.0km/h 10.1mph /  16.3km/h 90% 0in /  0.0mm
03:02 46.2 °F /  7.9 °C 44.6 °F /  7.0 °C 29.6in /  1000.9hPa WSW 8.7mph /  14.0km/h 10.1mph /  16.3km/h 91% 0in /  0.0mm
03:03 46.2 °F /  7.9 °C 44.6 °F /  7.0 °C 29.6in /  1000.9hPa WSW 10.7mph /  17.2km/h 10.7mph /  17.2km/h 91% 0in /  0.0mm
03:08 46.4 °F /  8.0 °C 44.6 °F /  7.0 °C 29.6in /  1000.9hPa WSW 8.5mph /  13.7km/h 12.1mph /  19.5km/h 92% 0in /  0.0mm
03:12 46.4 °F /  8.0 °C 44.6 °F /  7.0 °C 29.5in /  999.9hPa SW 7.4mph /  11.9km/h 12.1mph /  19.5km/h 92% 0in /  0.0mm
03:14 46.4 °F /  8.0 °C 44.6 °F /  7.0 °C 29.5in /  999.9hPa SSW 7.6mph /  12.2km/h 12.1mph /  19.5km/h 92% 0in /  0.0mm
03:19 46.6 °F /  8.1 °C 44.6 °F /  7.0 °C 29.5in /  999.9hPa WSW 6.7mph /  10.8km/h 9.6mph /  15.4km/h 92% 0in /  0.0mm
03:20 46.6 °F /  8.1 °C 44.6 °F /  7.0 °C 29.5in /  999.9hPa WSW 7.6mph /  12.2km/h 9.6mph /  15.4km/h 92% 0in /  0.0mm
03:22 46.6 °F /  8.1 °C 44.6 °F /  7.0 °C 29.5in /  999.9hPa WSW 6.5mph /  10.5km/h 9.8mph /  15.8km/h 92% 0in /  0.0mm
03:26 46.8 °F /  8.2 °C 44.6 °F /  7.0 °C 29.5in /  999.9hPa WSW 8.1mph /  13.0km/h 9.8mph /  15.8km/h 92% 0in /  0.0mm
03:28 46.8 °F /  8.2 °C 44.6 °F /  7.0 °C 29.5in /  999.9hPa WSW 7.8mph /  12.6km/h 9.8mph /  15.8km/h 93% 0in /  0.0mm
03:33 46.8 °F /  8.2 °C 44.6 °F /  7.0 °C 29.5in /  999.9hPa WSW 6.9mph /  11.1km/h 10.1mph /  16.3km/h 93% 0in /  0.0mm
03:38 46.8 °F /  8.2 °C 44.6 °F /  7.0 °C 29.5in /  999.9hPa WSW 5.4mph /  8.7km/h 10.1mph /  16.3km/h 93% 0in /  0.0mm
03:41 46.8 °F /  8.2 °C 44.6 °F /  7.0 °C 29.5in /  999.9hPa WSW 8.7mph /  14.0km/h 8.7mph /  14.0km/h 93% 0in /  0.0mm
03:46 46.9 °F /  8.3 °C 46.4 °F /  8.0 °C 29.5in /  999.9hPa WSW 6.3mph /  10.1km/h 8.7mph /  14.0km/h 93% 0in /  0.0mm
03:52 46.9 °F /  8.3 °C 46.4 °F /  8.0 °C 29.5in /  999.9hPa WSW 8.7mph /  14.0km/h 8.7mph /  14.0km/h 93% 0in /  0.0mm
03:53 46.9 °F /  8.3 °C 46.4 °F /  8.0 °C 29.5in /  999.9hPa WSW 5.8mph /  9.3km/h 8.7mph /  14.0km/h 94% 0in /  0.0mm
03:58 47.1 °F /  8.4 °C 46.4 °F /  8.0 °C 29.5in /  999.9hPa WSW 8.7mph /  14.0km/h 8.7mph /  14.0km/h 94% 0in /  0.0mm
04:00 47.1 °F /  8.4 °C 46.4 °F /  8.0 °C 29.5in /  999.9hPa WSW 6.3mph /  10.1km/h 8.7mph /  14.0km/h 94% 0in /  0.0mm
04:05 47.3 °F /  8.5 °C 46.4 °F /  8.0 °C 29.5in /  999.9hPa WSW 6.5mph /  10.5km/h 8.7mph /  14.0km/h 94% 0in /  0.0mm
04:08 47.3 °F /  8.5 °C 46.4 °F /  8.0 °C 29.5in /  999.9hPa WSW 7.2mph /  11.6km/h 8.7mph /  14.0km/h 94% 0in /  0.0mm
04:12 47.3 °F /  8.5 °C 46.4 °F /  8.0 °C 29.5in /  999.9hPa WSW 7.6mph /  12.2km/h 8.5mph /  13.7km/h 94% 0in /  0.0mm
04:13 47.3 °F /  8.5 °C 46.4 °F /  8.0 °C 29.5in /  999.9hPa WSW 7.8mph /  12.6km/h 10.1mph /  16.3km/h 95% 0in /  0.0mm
04:18 47.3 °F /  8.5 °C 46.4 °F /  8.0 °C 29.5in /  999.9hPa WSW 7.8mph /  12.6km/h 12.8mph /  20.6km/h 95% 0in /  0.0mm
04:22 47.5 °F /  8.6 °C 46.4 °F /  8.0 °C 29.5in /  999.9hPa WSW 8.5mph /  13.7km/h 13mph /  20.9km/h 95% 0in /  0.0mm
04:29 47.5 °F /  8.6 °C 46.4 °F /  8.0 °C 29.5in /  999.9hPa WSW 7.2mph /  11.6km/h 13mph /  20.9km/h 95% 0in /  0.0mm
04:34 47.7 °F /  8.7 °C 46.4 °F /  8.0 °C 29.5in /  999.9hPa WSW 6.3mph /  10.1km/h 13mph /  20.9km/h 95% 0in /  0.0mm
04:39 47.7 °F /  8.7 °C 46.4 °F /  8.0 °C 29.5in /  999.9hPa WSW 6.3mph /  10.1km/h 10.5mph /  16.9km/h 95% 0in /  0.0mm
04:42 47.7 °F /  8.7 °C 46.4 °F /  8.0 °C 29.5in /  998.9hPa WSW 4.9mph /  7.9km/h 10.5mph /  16.9km/h 95% 0in /  0.0mm
04:48 47.7 °F /  8.7 °C 46.4 °F /  8.0 °C 29.5in /  998.9hPa WSW 6.5mph /  10.5km/h 10.1mph /  16.3km/h 95% 0in /  0.0mm
04:53 47.7 °F /  8.7 °C 46.4 °F /  8.0 °C 29.5in /  998.9hPa WSW 7.8mph /  12.6km/h 8.7mph /  14.0km/h 94% 0in /  0.0mm
04:54 47.7 °F /  8.7 °C 46.4 °F /  8.0 °C 29.5in /  998.9hPa WSW 7.4mph /  11.9km/h 10.7mph /  17.2km/h 94% 0in /  0.0mm
04:55 47.7 °F /  8.7 °C 46.4 °F /  8.0 °C 29.5in /  998.9hPa WSW 6.5mph /  10.5km/h 10.7mph /  17.2km/h 94% 0in /  0.0mm
05:00 47.7 °F /  8.7 °C 46.4 °F /  8.0 °C 29.5in /  998.9hPa SW 6.5mph /  10.5km/h 10.7mph /  17.2km/h 94% 0in /  0.0mm
05:03 47.8 °F /  8.8 °C 46.4 °F /  8.0 °C 29.5in /  998.9hPa WSW 7.6mph /  12.2km/h 10.7mph /  17.2km/h 94% 0in /  0.0mm
05:08 47.8 °F /  8.8 °C 46.4 °F /  8.0 °C 29.5in /  998.9hPa WSW 6mph /  9.7km/h 10.1mph /  16.3km/h 94% 0in /  0.0mm
05:11 47.8 °F /  8.8 °C 46.4 °F /  8.0 °C 29.5in /  998.9hPa SW 7.6mph /  12.2km/h 9.8mph /  15.8km/h 94% 0in /  0.0mm
05:14 47.8 °F /  8.8 °C 46.4 °F /  8.0 °C 29.5in /  998.9hPa SW 5.6mph /  9.0km/h 8.7mph /  14.0km/h 94% 0in /  0.0mm
05:15 47.8 °F /  8.8 °C 46.4 °F /  8.0 °C 29.5in /  998.9hPa SW 5.6mph /  9.0km/h 8.7mph /  14.0km/h 94% 0in /  0.0mm
05:16 47.8 °F /  8.8 °C 46.4 °F /  8.0 °C 29.5in /  998.9hPa SW 6.5mph /  10.5km/h 8.7mph /  14.0km/h 94% 0in /  0.0mm
05:17 47.8 °F /  8.8 °C 46.4 °F /  8.0 °C 29.5in /  998.9hPa WSW 6.3mph /  10.1km/h 8.7mph /  14.0km/h 94% 0in /  0.0mm
05:18 47.8 °F /  8.8 °C 46.4 °F /  8.0 °C 29.5in /  998.9hPa SSW 3.6mph /  5.8km/h 8.7mph /  14.0km/h 94% 0in /  0.0mm
05:19 47.8 °F /  8.8 °C 46.4 °F /  8.0 °C 29.5in /  998.9hPa WSW 5.4mph /  8.7km/h 8.7mph /  14.0km/h 94% 0in /  0.0mm
05:20 47.8 °F /  8.8 °C 46.4 °F /  8.0 °C 29.5in /  998.9hPa SW 6.3mph /  10.1km/h 8.1mph /  13.0km/h 94% 0in /  0.0mm
05:22 47.7 °F /  8.7 °C 46.4 °F /  8.0 °C 29.5in /  998.9hPa WSW 4.9mph /  7.9km/h 7.8mph /  12.6km/h 95% 0in /  0.0mm
05:23 47.7 °F /  8.7 °C 46.4 °F /  8.0 °C 29.5in /  998.9hPa WSW 6mph /  9.7km/h 7.8mph /  12.6km/h 95% 0in /  0.0mm
05:26 47.7 °F /  8.7 °C 46.4 °F /  8.0 °C 29.5in /  998.9hPa WSW 6.3mph /  10.1km/h 7.8mph /  12.6km/h 95% 0in /  0.0mm
05:31 47.7 °F /  8.7 °C 46.4 °F /  8.0 °C 29.5in /  998.9hPa SW 4.9mph /  7.9km/h 7.8mph /  12.6km/h 95% 0in /  0.0mm
05:36 47.5 °F /  8.6 °C 46.4 °F /  8.0 °C 29.5in /  998.9hPa SW 5.4mph /  8.7km/h 7.4mph /  11.9km/h 95% 0in /  0.0mm
05:38 47.5 °F /  8.6 °C 46.4 °F /  8.0 °C 29.5in /  998.9hPa SW 4mph /  6.4km/h 6.9mph /  11.1km/h 95% 0in /  0.0mm
05:39 47.5 °F /  8.6 °C 46.4 °F /  8.0 °C 29.5in /  998.9hPa WSW 6mph /  9.7km/h 6.9mph /  11.1km/h 95% 0in /  0.0mm
05:43 47.5 °F /  8.6 °C 48.2 °F /  9.0 °C 29.5in /  997.9hPa SW 5.6mph /  9.0km/h 8.7mph /  14.0km/h 96% 0in /  0.0mm
05:44 47.5 °F /  8.6 °C 48.2 °F /  9.0 °C 29.5in /  997.9hPa SSW 5.6mph /  9.0km/h 8.7mph /  14.0km/h 96% 0in /  0.0mm
05:47 47.3 °F /  8.5 °C 48.2 °F /  9.0 °C 29.5in /  997.9hPa WSW 6.5mph /  10.5km/h 8.7mph /  14.0km/h 96% 0in /  0.0mm
05:50 47.3 °F /  8.5 °C 48.2 °F /  9.0 °C 29.5in /  997.9hPa WSW 4.9mph /  7.9km/h 8.1mph /  13.0km/h 96% 0in /  0.0mm
05:53 47.3 °F /  8.5 °C 48.2 °F /  9.0 °C 29.5in /  997.9hPa WSW 6.3mph /  10.1km/h 7.6mph /  12.2km/h 96% 0in /  0.0mm
05:56 47.3 °F /  8.5 °C 48.2 °F /  9.0 °C 29.5in /  997.9hPa SW 5.8mph /  9.3km/h 7.4mph /  11.9km/h 96% 0in /  0.0mm
05:58 47.3 °F /  8.5 °C 48.2 °F /  9.0 °C 29.5in /  997.9hPa SSW 3.6mph /  5.8km/h 8.7mph /  14.0km/h 96% 0in /  0.0mm
06:03 47.3 °F /  8.5 °C 48.2 °F /  9.0 °C 29.5in /  997.9hPa SSW 7.8mph /  12.6km/h 8.7mph /  14.0km/h 96% 0in /  0.0mm
06:12 47.3 °F /  8.5 °C 48.2 °F /  9.0 °C 29.5in /  997.9hPa SW 3.8mph /  6.1km/h 7.8mph /  12.6km/h 97% 0.01in /  0.3mm
06:17 47.1 °F /  8.4 °C 46.4 °F /  8.0 °C 29.5in /  997.9hPa SSW 5.8mph /  9.3km/h 6.5mph /  10.5km/h 97% 0.01in /  0.3mm
06:23 47.1 °F /  8.4 °C 48.2 °F /  9.0 °C 29.5in /  997.9hPa SSW 3.1mph /  5.0km/h 6.5mph /  10.5km/h 98% 0.01in /  0.3mm
06:24 47.1 °F /  8.4 °C 48.2 °F /  9.0 °C 29.5in /  997.9hPa SW 6mph /  9.7km/h 6.5mph /  10.5km/h 98% 0.01in /  0.3mm
06:29 47.1 °F /  8.4 °C 48.2 °F /  9.0 °C 29.5in /  997.9hPa SSW 3.1mph /  5.0km/h 6.5mph /  10.5km/h 98% 0.02in /  0.5mm
06:34 47.1 °F /  8.4 °C 48.2 °F /  9.0 °C 29.5in /  997.9hPa SSW 4.7mph /  7.6km/h 7.6mph /  12.2km/h 98% 0.02in /  0.5mm
06:37 46.9 °F /  8.3 °C 48.2 °F /  9.0 °C 29.5in /  997.9hPa SSW 6.3mph /  10.1km/h 7.6mph /  12.2km/h 98% 0.02in /  0.5mm
06:41 46.9 °F /  8.3 °C 48.2 °F /  9.0 °C 29.5in /  997.9hPa SSW 5.6mph /  9.0km/h 6.7mph /  10.8km/h 98% 0.02in /  0.5mm
06:42 46.9 °F /  8.3 °C 48.2 °F /  9.0 °C 29.5in /  997.9hPa SSW 5.4mph /  8.7km/h 6.7mph /  10.8km/h 98% 0.02in /  0.5mm
06:47 46.9 °F /  8.3 °C 48.2 °F /  9.0 °C 29.5in /  997.9hPa SSW 3.6mph /  5.8km/h 6.7mph /  10.8km/h 98% 0.03in /  0.8mm
06:49 46.9 °F /  8.3 °C 48.2 °F /  9.0 °C 29.5in /  997.9hPa Calm   6mph /  9.7km/h 98% 0.03in /  0.8mm
06:51 46.9 °F /  8.3 °C 48.2 °F /  9.0 °C 29.5in /  997.9hPa SSW 3.1mph /  5.0km/h 6mph /  9.7km/h 98% 0.05in /  1.3mm
06:54 46.9 °F /  8.3 °C 48.2 °F /  9.0 °C 29.5in /  997.9hPa Calm   5.4mph /  8.7km/h 98% 0.05in /  1.3mm
06:59 46.9 °F /  8.3 °C 48.2 °F /  9.0 °C 29.5in /  997.9hPa Calm   3.6mph /  5.8km/h 98% 0.05in /  1.3mm
07:00 46.8 °F /  8.2 °C 46.4 °F /  8.0 °C 29.5in /  997.9hPa Calm   3.6mph /  5.8km/h 98% 0.06in /  1.5mm
07:04 46.8 °F /  8.2 °C 46.4 °F /  8.0 °C 29.5in /  997.9hPa SSW 3.4mph /  5.5km/h 3.6mph /  5.8km/h 98% 0.06in /  1.5mm
07:09 46.8 °F /  8.2 °C 46.4 °F /  8.0 °C 29.5in /  997.9hPa Calm   4mph /  6.4km/h 98% 0.06in /  1.5mm
07:12 46.8 °F /  8.2 °C 46.4 °F /  8.0 °C 29.4in /  996.8hPa Calm   4mph /  6.4km/h 98% 0.06in /  1.5mm
07:18 46.8 °F /  8.2 °C 46.4 °F /  8.0 °C 29.4in /  996.8hPa Calm   4.7mph /  7.6km/h 98% 0.07in /  1.8mm
07:23 46.8 °F /  8.2 °C 46.4 °F /  8.0 °C 29.4in /  996.8hPa Calm   4.9mph /  7.9km/h 98% 0.07in /  1.8mm
07:26 46.8 °F /  8.2 °C 46.4 °F /  8.0 °C 29.4in /  996.8hPa SSW 4mph /  6.4km/h 5.4mph /  8.7km/h 98% 0.09in /  2.3mm
07:30 46.6 °F /  8.1 °C 46.4 °F /  8.0 °C 29.4in /  996.8hPa SSW 3.6mph /  5.8km/h 5.4mph /  8.7km/h 98% 0.07in /  1.8mm
07:32 46.6 °F /  8.1 °C 46.4 °F /  8.0 °C 29.4in /  996.8hPa SSW 3.6mph /  5.8km/h 5.4mph /  8.7km/h 98% 0.07in /  1.8mm
07:34 46.6 °F /  8.1 °C 46.4 °F /  8.0 °C 29.4in /  996.8hPa SSW 5.8mph /  9.3km/h 6.3mph /  10.1km/h 98% 0.07in /  1.8mm
07:36 46.6 °F /  8.1 °C 46.4 °F /  8.0 °C 29.4in /  996.8hPa SSW 4.9mph /  7.9km/h 6.3mph /  10.1km/h 98% 0.09in /  2.3mm
07:38 46.6 °F /  8.1 °C 46.4 °F /  8.0 °C 29.4in /  996.8hPa SSW 4mph /  6.4km/h 6.3mph /  10.1km/h 98% 0.09in /  2.3mm
07:39 46.6 °F /  8.1 °C 46.4 °F /  8.0 °C 29.4in /  996.8hPa SSW 3.6mph /  5.8km/h 6.3mph /  10.1km/h 98% 0.09in /  2.3mm
07:44 46.6 °F /  8.1 °C 46.4 °F /  8.0 °C 29.4in /  996.8hPa Calm   5.8mph /  9.3km/h 98% 0.09in /  2.3mm
07:47 46.6 °F /  8.1 °C 46.4 °F /  8.0 °C 29.4in /  996.8hPa SSW 4.9mph /  7.9km/h 7.4mph /  11.9km/h 98% 0.09in /  2.3mm
07:48 46.6 °F /  8.1 °C 46.4 °F /  8.0 °C 29.4in /  996.8hPa SSW 4.9mph /  7.9km/h 7.4mph /  11.9km/h 98% 0.09in /  2.3mm
07:51 46.6 °F /  8.1 °C 46.4 °F /  8.0 °C 29.4in /  996.8hPa South 4mph /  6.4km/h 7.4mph /  11.9km/h 98% 0.09in /  2.3mm
07:54 46.6 °F /  8.1 °C 46.4 °F /  8.0 °C 29.4in /  996.8hPa South 5.6mph /  9.0km/h 7.4mph /  11.9km/h 98% 0.1in /  2.5mm
07:59 46.6 °F /  8.1 °C 46.4 °F /  8.0 °C 29.4in /  996.8hPa South 0.9mph /  1.4km/h 6mph /  9.7km/h 98% 0.1in /  2.5mm
08:04 46.4 °F /  8.0 °C 46.4 °F /  8.0 °C 29.4in /  996.8hPa Calm   6mph /  9.7km/h 98% 0.1in /  2.5mm
08:06 46.4 °F /  8.0 °C 46.4 °F /  8.0 °C 29.4in /  996.8hPa Calm   6mph /  9.7km/h 98% 0.1in /  2.5mm
08:11 46.4 °F /  8.0 °C 46.4 °F /  8.0 °C 29.4in /  996.8hPa SSW 2.9mph /  4.7km/h 8.1mph /  13.0km/h 98% 0.1in /  2.5mm
08:12 46.4 °F /  8.0 °C 46.4 °F /  8.0 °C 29.4in /  996.8hPa South 6.3mph /  10.1km/h 8.1mph /  13.0km/h 98% 0.1in /  2.5mm
08:14 46.4 °F /  8.0 °C 46.4 °F /  8.0 °C 29.4in /  996.8hPa South 6mph /  9.7km/h 8.1mph /  13.0km/h 98% 0.1in /  2.5mm
08:18 46.4 °F /  8.0 °C 46.4 °F /  8.0 °C 29.4in /  996.8hPa SSW 4.3mph /  6.9km/h 8.1mph /  13.0km/h 98% 0.09in /  2.3mm
08:19 46.4 °F /  8.0 °C 46.4 °F /  8.0 °C 29.4in /  996.8hPa SSW 4.9mph /  7.9km/h 8.1mph /  13.0km/h 98% 0.1in /  2.5mm
08:24 46.4 °F /  8.0 °C 46.4 °F /  8.0 °C 29.4in /  996.8hPa South 5.4mph /  8.7km/h 6mph /  9.7km/h 98% 0.09in /  2.3mm
08:26 46.4 °F /  8.0 °C 46.4 °F /  8.0 °C 29.4in /  996.8hPa South 3.8mph /  6.1km/h 5.8mph /  9.3km/h 98% 0.09in /  2.3mm
08:30 46.4 °F /  8.0 °C 46.4 °F /  8.0 °C 29.4in /  996.8hPa South 5.8mph /  9.3km/h 5.8mph /  9.3km/h 98% 0.1in /  2.5mm
08:36 46.4 °F /  8.0 °C 46.4 °F /  8.0 °C 29.4in /  996.8hPa South 5.8mph /  9.3km/h 6.7mph /  10.8km/h 98% 0.09in /  2.3mm
08:37 46.4 °F /  8.0 °C 46.4 °F /  8.0 °C 29.4in /  996.8hPa SSE 6.3mph /  10.1km/h 6.7mph /  10.8km/h 98% 0.09in /  2.3mm
08:39 46.2 °F /  7.9 °C 46.4 °F /  8.0 °C 29.4in /  996.8hPa SSE 3.6mph /  5.8km/h 6.7mph /  10.8km/h 98% 0.1in /  2.5mm
08:42 46.2 °F /  7.9 °C 46.4 °F /  8.0 °C 29.4in /  996.8hPa South 5.4mph /  8.7km/h 7.2mph /  11.6km/h 98% 0.09in /  2.3mm
08:45 46.2 °F /  7.9 °C 46.4 °F /  8.0 °C 29.4in /  996.8hPa SSE 4mph /  6.4km/h 7.2mph /  11.6km/h 98% 0.09in /  2.3mm
08:50 46.2 °F /  7.9 °C 46.4 °F /  8.0 °C 29.4in /  996.8hPa South 5.6mph /  9.0km/h 7.2mph /  11.6km/h 98% 0.07in /  1.8mm
08:51 46.2 °F /  7.9 °C 46.4 °F /  8.0 °C 29.4in /  996.8hPa South 4mph /  6.4km/h 7.2mph /  11.6km/h 98% 0.09in /  2.3mm
08:53 46.2 °F /  7.9 °C 46.4 °F /  8.0 °C 29.4in /  996.8hPa Calm   6.3mph /  10.1km/h 98% 0.09in /  2.3mm
08:58 46.2 °F /  7.9 °C 46.4 °F /  8.0 °C 29.4in /  996.2hPa South 5.4mph /  8.7km/h 6.5mph /  10.5km/h 98% 0.07in /  1.8mm
09:00 46.2 °F /  7.9 °C 46.4 °F /  8.0 °C 29.4in /  996.2hPa South 6.3mph /  10.1km/h 7.4mph /  11.9km/h 98% 0.06in /  1.5mm
09:02 46.2 °F /  7.9 °C 46.4 °F /  8.0 °C 29.4in /  996.2hPa SSE 3.8mph /  6.1km/h 7.4mph /  11.9km/h 98% 0.07in /  1.8mm
09:07 46.2 °F /  7.9 °C 46.4 °F /  8.0 °C 29.4in /  996.2hPa SSE 3.4mph /  5.5km/h 7.4mph /  11.9km/h 98% 0.07in /  1.8mm
09:10 46.2 °F /  7.9 °C 46.4 °F /  8.0 °C 29.4in /  996.2hPa SSW 4mph /  6.4km/h 7.4mph /  11.9km/h 98% 0.06in /  1.5mm
09:14 46.4 °F /  8.0 °C 46.4 °F /  8.0 °C 29.4in /  996.2hPa South 4.3mph /  6.9km/h 8.5mph /  13.7km/h 98% 0.06in /  1.5mm
09:17 46.4 °F /  8.0 °C 46.4 °F /  8.0 °C 29.4in /  996.2hPa South 3.8mph /  6.1km/h 8.5mph /  13.7km/h 98% 0.07in /  1.8mm
09:22 46.4 °F /  8.0 °C 46.4 °F /  8.0 °C 29.4in /  996.2hPa South 4mph /  6.4km/h 6.3mph /  10.1km/h 98% 0.06in /  1.5mm
09:24 46.4 °F /  8.0 °C 46.4 °F /  8.0 °C 29.4in /  996.2hPa South 0.9mph /  1.4km/h 6.3mph /  10.1km/h 98% 0.07in /  1.8mm
09:27 46.4 °F /  8.0 °C 46.4 °F /  8.0 °C 29.4in /  994.1hPa SSW 5.8mph /  9.3km/h 7.6mph /  12.2km/h 98% 0.06in /  1.5mm
09:30 46.4 °F /  8.0 °C 46.4 °F /  8.0 °C 29.4in /  994.1hPa South 7.8mph /  12.6km/h 7.8mph /  12.6km/h 98% 0.06in /  1.5mm
09:33 46.4 °F /  8.0 °C 46.4 °F /  8.0 °C 29.4in /  994.1hPa SSW 3.6mph /  5.8km/h 8.1mph /  13.0km/h 98% 0.06in /  1.5mm
09:35 46.4 °F /  8.0 °C 46.4 °F /  8.0 °C 29.4in /  994.1hPa SSW 6mph /  9.7km/h 8.1mph /  13.0km/h 98% 0.07in /  1.8mm
09:36 46.4 °F /  8.0 °C 46.4 °F /  8.0 °C 29.4in /  994.1hPa SSW 4mph /  6.4km/h 8.1mph /  13.0km/h 98% 0.07in /  1.8mm
09:38 46.6 °F /  8.1 °C 46.4 °F /  8.0 °C 29.4in /  994.1hPa SSW 5.6mph /  9.0km/h 9.6mph /  15.4km/h 98% 0.06in /  1.5mm
09:43 46.6 °F /  8.1 °C 46.4 °F /  8.0 °C 29.4in /  995.1hPa SW 3.4mph /  5.5km/h 9.6mph /  15.4km/h 98% 0.07in /  1.8mm
09:48 46.6 °F /  8.1 °C 46.4 °F /  8.0 °C 29.4in /  995.1hPa South 6mph /  9.7km/h 6.5mph /  10.5km/h 98% 0.07in /  1.8mm
09:51 46.6 °F /  8.1 °C 46.4 °F /  8.0 °C 29.4in /  995.1hPa South 5.6mph /  9.0km/h 9.6mph /  15.4km/h 98% 0.07in /  1.8mm
09:54 46.6 °F /  8.1 °C 46.4 °F /  8.0 °C 29.4in /  995.1hPa WSW 7.2mph /  11.6km/h 9.6mph /  15.4km/h 98% 0.07in /  1.8mm
09:59 46.8 °F /  8.2 °C 46.4 °F /  8.0 °C 29.4in /  995.1hPa SSW 7.6mph /  12.2km/h 9.6mph /  15.4km/h 98% 0.09in /  2.3mm
10:03 46.9 °F /  8.3 °C 48.2 °F /  9.0 °C 29.4in /  995.1hPa SW 5.8mph /  9.3km/h 8.7mph /  14.0km/h 98% 0.07in /  1.8mm
10:08 46.9 °F /  8.3 °C 48.2 °F /  9.0 °C 29.4in /  995.1hPa South 8.5mph /  13.7km/h 8.7mph /  14.0km/h 98% 0.09in /  2.3mm
10:13 46.9 °F /  8.3 °C 48.2 °F /  9.0 °C 29.4in /  995.1hPa SSW 3.4mph /  5.5km/h 8.7mph /  14.0km/h 98% 0.1in /  2.5mm
10:14 47.1 °F /  8.4 °C 48.2 °F /  9.0 °C 29.4in /  995.1hPa South 1.1mph /  1.8km/h 8.7mph /  14.0km/h 98% 0.09in /  2.3mm
10:16 47.1 °F /  8.4 °C 48.2 °F /  9.0 °C 29.4in /  995.1hPa WSW 4mph /  6.4km/h 8.7mph /  14.0km/h 98% 0.1in /  2.5mm
10:21 47.1 °F /  8.4 °C 48.2 °F /  9.0 °C 29.4in /  995.1hPa South 7.2mph /  11.6km/h 8.7mph /  14.0km/h 98% 0.1in /  2.5mm
10:26 47.3 °F /  8.5 °C 48.2 °F /  9.0 °C 29.4in /  995.1hPa South 8.5mph /  13.7km/h 10.7mph /  17.2km/h 98% 0.1in /  2.5mm
10:30 47.3 °F /  8.5 °C 48.2 °F /  9.0 °C 29.4in /  995.1hPa South 4mph /  6.4km/h 10.7mph /  17.2km/h 98% 0.11in /  2.8mm
10:35 47.3 °F /  8.5 °C 48.2 °F /  9.0 °C 29.4in /  995.1hPa South 4.3mph /  6.9km/h 10.7mph /  17.2km/h 98% 0.11in /  2.8mm
10:38 47.5 °F /  8.6 °C 48.2 °F /  9.0 °C 29.4in /  995.1hPa SSW 5.8mph /  9.3km/h 8.7mph /  14.0km/h 98% 0.12in /  3.0mm
10:43 47.5 °F /  8.6 °C 48.2 °F /  9.0 °C 29.4in /  994.1hPa South 7.6mph /  12.2km/h 9.6mph /  15.4km/h 98% 0.12in /  3.0mm
10:48 47.5 °F /  8.6 °C 48.2 °F /  9.0 °C 29.4in /  994.1hPa South 5.8mph /  9.3km/h 9.6mph /  15.4km/h 98% 0.13in /  3.3mm
10:52 47.5 °F /  8.6 °C 48.2 °F /  9.0 °C 29.4in /  994.1hPa South 7.4mph /  11.9km/h 9.6mph /  15.4km/h 98% 0.13in /  3.3mm
10:56 47.7 °F /  8.7 °C 48.2 °F /  9.0 °C 29.4in /  994.1hPa South 4.7mph /  7.6km/h 8.5mph /  13.7km/h 98% 0.15in /  3.8mm
11:01 47.7 °F /  8.7 °C 48.2 °F /  9.0 °C 29.4in /  994.1hPa South 4.9mph /  7.9km/h 8.1mph /  13.0km/h 98% 0.15in /  3.8mm
11:05 47.8 °F /  8.8 °C 48.2 °F /  9.0 °C 29.4in /  994.1hPa South 5.4mph /  8.7km/h 7.2mph /  11.6km/h 98% 0.13in /  3.3mm
11:06 47.8 °F /  8.8 °C 48.2 °F /  9.0 °C 29.4in /  994.1hPa South 7.8mph /  12.6km/h 8.5mph /  13.7km/h 98% 0.15in /  3.8mm
11:11 47.8 °F /  8.8 °C 48.2 °F /  9.0 °C 29.4in /  994.1hPa SSW 3.8mph /  6.1km/h 8.5mph /  13.7km/h 98% 0.13in /  3.3mm
11:16 48 °F /  8.9 °C 48.2 °F /  9.0 °C 29.4in /  994.1hPa SSW 5.6mph /  9.0km/h 8.7mph /  14.0km/h 98% 0.13in /  3.3mm
11:17 48 °F /  8.9 °C 48.2 °F /  9.0 °C 29.4in /  994.1hPa SW 5.4mph /  8.7km/h 8.7mph /  14.0km/h 98% 0.13in /  3.3mm
11:22 48.2 °F /  9.0 °C 48.2 °F /  9.0 °C 29.4in /  994.1hPa SSW 6mph /  9.7km/h 8.7mph /  14.0km/h 98% 0.12in /  3.0mm
11:26 48.4 °F /  9.1 °C 48.2 °F /  9.0 °C 29.4in /  994.1hPa South 3.6mph /  5.8km/h 8.5mph /  13.7km/h 98% 0.13in /  3.3mm
11:28 48.6 °F /  9.2 °C 48.2 °F /  9.0 °C 29.4in /  994.1hPa SSW 4mph /  6.4km/h 8.5mph /  13.7km/h 98% 0.12in /  3.0mm
11:32 48.7 °F /  9.3 °C 48.2 °F /  9.0 °C 29.4in /  994.1hPa SW 5.8mph /  9.3km/h 8.5mph /  13.7km/h 98% 0.12in /  3.0mm
11:36 48.9 °F /  9.4 °C 48.2 °F /  9.0 °C 29.4in /  994.1hPa WSW 8.5mph /  13.7km/h 8.5mph /  13.7km/h 98% 0.11in /  2.8mm
11:38 48.9 °F /  9.4 °C 48.2 °F /  9.0 °C 29.4in /  994.1hPa SW 5.4mph /  8.7km/h 9.8mph /  15.8km/h 98% 0.11in /  2.8mm
11:43 49.3 °F /  9.6 °C 50 °F /  10.0 °C 29.3in /  993.1hPa WSW 6.5mph /  10.5km/h 9.8mph /  15.8km/h 98% 0.1in /  2.5mm
11:46 49.6 °F /  9.8 °C 50 °F /  10.0 °C 29.3in /  993.1hPa SSW 7.6mph /  12.2km/h 9.8mph /  15.8km/h 98% 0.09in /  2.3mm
11:51 50.2 °F /  10.1 °C 50 °F /  10.0 °C 29.3in /  993.1hPa WSW 10.3mph /  16.6km/h 10.7mph /  17.2km/h 98% 0.09in /  2.3mm
11:54 50.4 °F /  10.2 °C 50 °F /  10.0 °C 29.3in /  993.1hPa WSW 10.5mph /  16.9km/h 13mph /  20.9km/h 98% 0.07in /  1.8mm
11:59 51.3 °F /  10.7 °C 51.8 °F /  11.0 °C 29.3in /  993.1hPa WSW 10.3mph /  16.6km/h 15.4mph /  24.8km/h 98% 0.06in /  1.5mm
12:01 51.4 °F /  10.8 °C 51.8 °F /  11.0 °C 29.3in /  993.1hPa WSW 13mph /  20.9km/h 15.7mph /  25.3km/h 98% 0.06in /  1.5mm
12:06 52.3 °F /  11.3 °C 51.8 °F /  11.0 °C 29.3in /  993.1hPa West 15.4mph /  24.8km/h 21mph /  33.8km/h 98% 0.05in /  1.3mm
12:12 53.1 °F /  11.7 °C 53.6 °F /  12.0 °C 29.3in /  992.1hPa WSW 20.4mph /  32.8km/h 23mph /  37.0km/h 98% 0.05in /  1.3mm
12:16 53.6 °F /  12.0 °C 53.6 °F /  12.0 °C 29.3in /  992.1hPa WSW 17mph /  27.4km/h 24.2mph /  38.9km/h 98% 0.04in /  1.0mm
12:21 54 °F /  12.2 °C 53.6 °F /  12.0 °C 29.3in /  992.1hPa WSW 16.6mph /  26.7km/h 28.4mph /  45.7km/h 98% 0.04in /  1.0mm
12:26 54.1 °F /  12.3 °C 55.4 °F /  13.0 °C 29.3in /  993.1hPa WSW 22.1mph /  35.6km/h 28.4mph /  45.7km/h 98% 0.03in /  0.8mm
12:27 54.3 °F /  12.4 °C 55.4 °F /  13.0 °C 29.3in /  993.1hPa WSW 20.6mph /  33.1km/h 28.4mph /  45.7km/h 98% 0.03in /  0.8mm
12:32 54.3 °F /  12.4 °C 55.4 °F /  13.0 °C 29.3in /  993.1hPa West 18.8mph /  30.2km/h 26.2mph /  42.2km/h 98% 0.02in /  0.5mm
12:35 54.5 °F /  12.5 °C 55.4 °F /  13.0 °C 29.3in /  993.1hPa WSW 15.4mph /  24.8km/h 26.2mph /  42.2km/h 98% 0.02in /  0.5mm
12:40 54.5 °F /  12.5 °C 55.4 °F /  13.0 °C 29.3in /  993.1hPa West 26.4mph /  42.5km/h 26.4mph /  42.5km/h 98% 0.02in /  0.5mm
12:42 54.5 °F /  12.5 °C 55.4 °F /  13.0 °C 29.3in /  993.1hPa WSW 14.8mph /  23.8km/h 26.4mph /  42.5km/h 98% 0.02in /  0.5mm
12:48 54.5 °F /  12.5 °C 55.4 °F /  13.0 °C 29.3in /  993.1hPa WSW 17.7mph /  28.5km/h 27.7mph /  44.6km/h 98% 0.02in /  0.5mm
12:49 54.5 °F /  12.5 °C 55.4 °F /  13.0 °C 29.3in /  993.1hPa West 19.7mph /  31.7km/h 27.7mph /  44.6km/h 98% 0.02in /  0.5mm
12:54 54.7 °F /  12.6 °C 55.4 °F /  13.0 °C 29.3in /  993.1hPa West 25.3mph /  40.7km/h 28.4mph /  45.7km/h 98% 0.01in /  0.3mm
12:56 54.7 °F /  12.6 °C 55.4 °F /  13.0 °C 29.3in /  993.1hPa WSW 17.9mph /  28.8km/h 28.4mph /  45.7km/h 98% 0.01in /  0.3mm
12:57 54.7 °F /  12.6 °C 55.4 °F /  13.0 °C 29.3in /  993.1hPa West 27.7mph /  44.6km/h 28.4mph /  45.7km/h 98% 0.01in /  0.3mm
13:03 54.9 °F /  12.7 °C 55.4 °F /  13.0 °C 29.3in /  993.1hPa WSW 16.3mph /  26.2km/h 27.7mph /  44.6km/h 98% 0.01in /  0.3mm
13:08 55 °F /  12.8 °C 55.4 °F /  13.0 °C 29.3in /  993.1hPa WSW 12.8mph /  20.6km/h 25.7mph /  41.4km/h 98% 0.01in /  0.3mm
13:09 55 °F /  12.8 °C 55.4 °F /  13.0 °C 29.3in /  993.1hPa WSW 15.2mph /  24.5km/h 25.7mph /  41.4km/h 98% 0.01in /  0.3mm
13:14 55 °F /  12.8 °C 55.4 °F /  13.0 °C 29.3in /  993.1hPa West 13.4mph /  21.6km/h 26.4mph /  42.5km/h 98% 0.01in /  0.3mm
13:15 55 °F /  12.8 °C 55.4 °F /  13.0 °C 29.3in /  993.1hPa West 12.5mph /  20.1km/h 26.4mph /  42.5km/h 98% 0.01in /  0.3mm
13:21 55.2 °F /  12.9 °C 55.4 °F /  13.0 °C 29.3in /  993.1hPa West 17.9mph /  28.8km/h 26.4mph /  42.5km/h 98% 0.01in /  0.3mm
13:26 55.2 °F /  12.9 °C 55.4 °F /  13.0 °C 29.4in /  994.1hPa WSW 15.4mph /  24.8km/h 25.5mph /  41.0km/h 98% 0.01in /  0.3mm
13:31 55.2 °F /  12.9 °C 55.4 °F /  13.0 °C 29.4in /  994.1hPa West 22.1mph /  35.6km/h 25.1mph /  40.4km/h 98% 0in /  0.0mm
13:36 55.4 °F /  13.0 °C 55.4 °F /  13.0 °C 29.4in /  994.1hPa West 23.7mph /  38.1km/h 29.8mph /  47.9km/h 98% 0in /  0.0mm
13:38 55.4 °F /  13.0 °C 55.4 °F /  13.0 °C 29.4in /  994.1hPa WSW 16.6mph /  26.7km/h 29.8mph /  47.9km/h 98% 0in /  0.0mm
13:39 55.4 °F /  13.0 °C 55.4 °F /  13.0 °C 29.4in /  994.1hPa West 27.1mph /  43.6km/h 30.2mph /  48.6km/h 98% 0in /  0.0mm
13:41 55.6 °F /  13.1 °C 55.4 °F /  13.0 °C 29.3in /  993.1hPa West 24.2mph /  38.9km/h 30.2mph /  48.6km/h 97% 0in /  0.0mm
13:47 55.6 °F /  13.1 °C 55.4 °F /  13.0 °C 29.3in /  993.1hPa West 17.2mph /  27.7km/h 30.2mph /  48.6km/h 96% 0in /  0.0mm
13:48 55.6 °F /  13.1 °C 55.4 °F /  13.0 °C 29.3in /  993.1hPa West 14.3mph /  23.0km/h 28.4mph /  45.7km/h 96% 0in /  0.0mm
13:53 55.6 °F /  13.1 °C 55.4 °F /  13.0 °C 29.3in /  993.1hPa West 22.6mph /  36.4km/h 28.4mph /  45.7km/h 95% 0in /  0.0mm
13:54 55.6 °F /  13.1 °C 55.4 °F /  13.0 °C 29.3in /  993.1hPa WSW 23mph /  37.0km/h 31.1mph /  50.0km/h 95% 0in /  0.0mm
13:58 55.6 °F /  13.1 °C 53.6 °F /  12.0 °C 29.3in /  993.1hPa West 23.3mph /  37.5km/h 31.1mph /  50.0km/h 94% 0in /  0.0mm
14:03 55.6 °F /  13.1 °C 53.6 °F /  12.0 °C 29.3in /  993.1hPa West 23.7mph /  38.1km/h 31.1mph /  50.0km/h 94% 0in /  0.0mm
14:04 55.6 °F /  13.1 °C 53.6 °F /  12.0 °C 29.3in /  993.1hPa WSW 13.2mph /  21.2km/h 28.6mph /  46.0km/h 94% 0in /  0.0mm
14:05 55.6 °F /  13.1 °C 53.6 °F /  12.0 °C 29.3in /  993.1hPa West 24.4mph /  39.3km/h 27.1mph /  43.6km/h 94% 0in /  0.0mm
14:10 55.6 °F /  13.1 °C 53.6 °F /  12.0 °C 29.3in /  993.1hPa WSW 26.4mph /  42.5km/h 26.4mph /  42.5km/h 93% 0in /  0.0mm
14:14 55.6 °F /  13.1 °C 53.6 °F /  12.0 °C 29.3in /  993.1hPa WSW 23.9mph /  38.5km/h 30.2mph /  48.6km/h 93% 0in /  0.0mm
14:17 55.6 °F /  13.1 °C 53.6 °F /  12.0 °C 29.3in /  993.1hPa WSW 23mph /  37.0km/h 30.2mph /  48.6km/h 92% 0in /  0.0mm
14:23 55.6 °F /  13.1 °C 53.6 °F /  12.0 °C 29.3in /  993.1hPa WSW 25.7mph /  41.4km/h 30.2mph /  48.6km/h 91% 0in /  0.0mm
14:25 55.6 °F /  13.1 °C 53.6 °F /  12.0 °C 29.3in /  993.1hPa WSW 17.2mph /  27.7km/h 28.9mph /  46.5km/h 91% 0in /  0.0mm
14:30 55.4 °F /  13.0 °C 53.6 °F /  12.0 °C 29.3in /  993.1hPa WSW 15.4mph /  24.8km/h 32.4mph /  52.1km/h 90% 0in /  0.0mm
14:32 55.4 °F /  13.0 °C 53.6 °F /  12.0 °C 29.3in /  993.1hPa West 26.4mph /  42.5km/h 32.4mph /  52.1km/h 90% 0in /  0.0mm
14:37 55.2 °F /  12.9 °C 53.6 °F /  12.0 °C 29.3in /  993.1hPa WSW 25.1mph /  40.4km/h 31.8mph /  51.2km/h 89% 0in /  0.0mm
14:38 55.2 °F /  12.9 °C 53.6 °F /  12.0 °C 29.3in /  993.1hPa WSW 24.2mph /  38.9km/h 31.8mph /  51.2km/h 89% 0in /  0.0mm
14:40 55 °F /  12.8 °C 53.6 °F /  12.0 °C 29.3in /  993.1hPa WSW 23.7mph /  38.1km/h 31.8mph /  51.2km/h 89% 0in /  0.0mm
14:41 55 °F /  12.8 °C 51.8 °F /  11.0 °C 29.3in /  992.1hPa WSW 28mph /  45.1km/h 31.8mph /  51.2km/h 88% 0in /  0.0mm
14:45 55.2 °F /  12.9 °C 51.8 °F /  11.0 °C 29.3in /  992.1hPa WSW 17.4mph /  28.0km/h 36.5mph /  58.7km/h 87% 0in /  0.0mm
14:50 55.2 °F /  12.9 °C 51.8 °F /  11.0 °C 29.3in /  992.1hPa West 24.2mph /  38.9km/h 36.5mph /  58.7km/h 87% 0in /  0.0mm
14:51 55.2 °F /  12.9 °C 51.8 °F /  11.0 °C 29.3in /  992.1hPa WSW 25.1mph /  40.4km/h 36.5mph /  58.7km/h 87% 0in /  0.0mm
14:56 55.4 °F /  13.0 °C 51.8 °F /  11.0 °C 29.3in /  992.1hPa West 24.6mph /  39.6km/h 32.9mph /  52.9km/h 85% 0in /  0.0mm
15:01 55.6 °F /  13.1 °C 51.8 °F /  11.0 °C 29.3in /  992.1hPa WSW 23.5mph /  37.8km/h 36.7mph /  59.1km/h 84% 0in /  0.0mm
15:06 55.4 °F /  13.0 °C 50 °F /  10.0 °C 29.3in /  992.1hPa WSW 25.3mph /  40.7km/h 36.7mph /  59.1km/h 83% 0in /  0.0mm
15:08 55.4 °F /  13.0 °C 50 °F /  10.0 °C 29.3in /  992.1hPa West 23.3mph /  37.5km/h 35.3mph /  56.8km/h 83% 0in /  0.0mm
15:13 55.4 °F /  13.0 °C 50 °F /  10.0 °C 29.3in /  992.1hPa WSW 27.7mph /  44.6km/h 34.4mph /  55.3km/h 82% 0in /  0.0mm
15:16 55.4 °F /  13.0 °C 50 °F /  10.0 °C 29.3in /  992.1hPa West 32.4mph /  52.1km/h 34.4mph /  55.3km/h 83% 0in /  0.0mm
15:21 55.2 °F /  12.9 °C 50 °F /  10.0 °C 29.3in /  992.1hPa WSW 24.4mph /  39.3km/h 32.4mph /  52.1km/h 82% 0in /  0.0mm
15:24 55.2 °F /  12.9 °C 50 °F /  10.0 °C 29.3in /  992.1hPa WSW 24.6mph /  39.6km/h 32.4mph /  52.1km/h 82% 0in /  0.0mm
15:26 55.2 °F /  12.9 °C 50 °F /  10.0 °C 29.3in /  993.1hPa WSW 23.7mph /  38.1km/h 32.4mph /  52.1km/h 81% 0in /  0.0mm
15:31 55 °F /  12.8 °C 50 °F /  10.0 °C 29.3in /  993.1hPa WSW 28.6mph /  46.0km/h 32.2mph /  51.8km/h 82% 0in /  0.0mm
15:36 55 °F /  12.8 °C 50 °F /  10.0 °C 29.3in /  993.1hPa WSW 26.4mph /  42.5km/h 37.8mph /  60.8km/h 80% 0in /  0.0mm
15:38 55 °F /  12.8 °C 50 °F /  10.0 °C 29.3in /  993.1hPa West 29.3mph /  47.1km/h 37.8mph /  60.8km/h 80% 0in /  0.0mm
15:43 54.7 °F /  12.6 °C 50 °F /  10.0 °C 29.3in /  993.1hPa WSW 28.9mph /  46.5km/h 36.7mph /  59.1km/h 80% 0in /  0.0mm
15:48 54.7 °F /  12.6 °C 48.2 °F /  9.0 °C 29.3in /  993.1hPa WSW 31.8mph /  51.2km/h 39.1mph /  62.9km/h 76% 0in /  0.0mm
15:49 54.5 °F /  12.5 °C 48.2 °F /  9.0 °C 29.3in /  993.1hPa WSW 25.9mph /  41.7km/h 39.1mph /  62.9km/h 75% 0in /  0.0mm
15:54 54.3 °F /  12.4 °C 48.2 °F /  9.0 °C 29.3in /  993.1hPa West 25.9mph /  41.7km/h 39.1mph /  62.9km/h 75% 0in /  0.0mm
15:56 54.5 °F /  12.5 °C 48.2 °F /  9.0 °C 29.3in /  992.1hPa West 32.2mph /  51.8km/h 44.1mph /  71.0km/h 75% 0in /  0.0mm
16:00 54.3 °F /  12.4 °C 48.2 °F /  9.0 °C 29.3in /  992.1hPa West 22.8mph /  36.7km/h 44.1mph /  71.0km/h 75% 0in /  0.0mm
16:06 54.3 °F /  12.4 °C 46.4 °F /  8.0 °C 29.3in /  992.1hPa West 28mph /  45.1km/h 44.1mph /  71.0km/h 74% 0in /  0.0mm
16:12 54.1 °F /  12.3 °C 48.2 °F /  9.0 °C 29.3in /  993.1hPa WSW 19.7mph /  31.7km/h 35.8mph /  57.6km/h 75% 0in /  0.0mm
16:17 54.1 °F /  12.3 °C 48.2 °F /  9.0 °C 29.3in /  993.1hPa West 19.9mph /  32.0km/h 35.8mph /  57.6km/h 75% 0in /  0.0mm
16:20 54.1 °F /  12.3 °C 48.2 °F /  9.0 °C 29.3in /  993.1hPa West 28.4mph /  45.7km/h 35.8mph /  57.6km/h 75% 0in /  0.0mm
16:25 54 °F /  12.2 °C 48.2 °F /  9.0 °C 29.3in /  993.1hPa West 26.4mph /  42.5km/h 38.3mph /  61.6km/h 77% 0in /  0.0mm
16:26 54 °F /  12.2 °C 48.2 °F /  9.0 °C 29.3in /  992.1hPa West 22.1mph /  35.6km/h 38.3mph /  61.6km/h 77% 0in /  0.0mm
16:31 54 °F /  12.2 °C 46.4 °F /  8.0 °C 29.3in /  992.1hPa WSW 23.5mph /  37.8km/h 38.3mph /  61.6km/h 76% 0in /  0.0mm
16:34 53.8 °F /  12.1 °C 46.4 °F /  8.0 °C 29.3in /  992.1hPa WSW 26.6mph /  42.8km/h 37.1mph /  59.7km/h 76% 0in /  0.0mm
16:39 53.6 °F /  12.0 °C 46.4 °F /  8.0 °C 29.3in /  992.1hPa WSW 30mph /  48.3km/h 37.1mph /  59.7km/h 74% 0in /  0.0mm
16:44 53.4 °F /  11.9 °C 46.4 °F /  8.0 °C 29.3in /  993.1hPa West 20.6mph /  33.1km/h 37.1mph /  59.7km/h 75% 0in /  0.0mm
16:46 53.2 °F /  11.8 °C 44.6 °F /  7.0 °C 29.3in /  993.1hPa West 36.7mph /  59.1km/h 36.7mph /  59.1km/h 74% 0in /  0.0mm
16:51 53.2 °F /  11.8 °C 44.6 °F /  7.0 °C 29.3in /  993.1hPa West 26.6mph /  42.8km/h 36.7mph /  59.1km/h 74% 0in /  0.0mm
16:55 53.1 °F /  11.7 °C 44.6 °F /  7.0 °C 29.3in /  993.1hPa WSW 37.4mph /  60.2km/h 40.3mph /  64.8km/h 74% 0in /  0.0mm
16:56 53.1 °F /  11.7 °C 44.6 °F /  7.0 °C 29.3in /  993.1hPa West 22.6mph /  36.4km/h 40.3mph /  64.8km/h 73% 0in /  0.0mm
16:59 53.1 °F /  11.7 °C 44.6 °F /  7.0 °C 29.3in /  993.1hPa West 25.3mph /  40.7km/h 40.3mph /  64.8km/h 74% 0in /  0.0mm
17:04 52.7 °F /  11.5 °C 44.6 °F /  7.0 °C 29.3in /  993.1hPa West 22.8mph /  36.7km/h 40.3mph /  64.8km/h 74% 0in /  0.0mm
17:05 52.7 °F /  11.5 °C 44.6 °F /  7.0 °C 29.3in /  993.1hPa West 23.3mph /  37.5km/h 37.4mph /  60.2km/h 74% 0in /  0.0mm
17:11 52.7 °F /  11.5 °C 44.6 °F /  7.0 °C 29.3in /  993.1hPa WNW 26.2mph /  42.2km/h 39.1mph /  62.9km/h 72% 0in /  0.0mm
17:16 52.5 °F /  11.4 °C 44.6 °F /  7.0 °C 29.3in /  993.1hPa West 23.3mph /  37.5km/h 39.1mph /  62.9km/h 73% 0in /  0.0mm
17:18 52.5 °F /  11.4 °C 44.6 °F /  7.0 °C 29.3in /  993.1hPa WNW 20.4mph /  32.8km/h 34.4mph /  55.3km/h 73% 0in /  0.0mm
17:21 52.5 °F /  11.4 °C 44.6 °F /  7.0 °C 29.3in /  993.1hPa West 21.9mph /  35.2km/h 34.4mph /  55.3km/h 73% 0in /  0.0mm
17:27 52.3 °F /  11.3 °C 44.6 °F /  7.0 °C 29.3in /  993.1hPa WSW 25.3mph /  40.7km/h 39.8mph /  64.0km/h 72% 0in /  0.0mm
17:32 52.2 °F /  11.2 °C 44.6 °F /  7.0 °C 29.3in /  993.1hPa WSW 20.6mph /  33.1km/h 39.8mph /  64.0km/h 73% 0in /  0.0mm
17:35 52 °F /  11.1 °C 42.8 °F /  6.0 °C 29.3in /  993.1hPa West 24.2mph /  38.9km/h 38.9mph /  62.6km/h 73% 0in /  0.0mm
17:36 52 °F /  11.1 °C 42.8 °F /  6.0 °C 29.3in /  993.1hPa WSW 26.4mph /  42.5km/h 38.9mph /  62.6km/h 73% 0in /  0.0mm
17:41 51.8 °F /  11.0 °C 44.6 °F /  7.0 °C 29.3in /  993.1hPa WSW 27.1mph /  43.6km/h 30.9mph /  49.7km/h 74% 0in /  0.0mm
17:42 51.6 °F /  10.9 °C 44.6 °F /  7.0 °C 29.3in /  993.1hPa West 25.7mph /  41.4km/h 30.9mph /  49.7km/h 74% 0in /  0.0mm
17:45 51.4 °F /  10.8 °C 42.8 °F /  6.0 °C 29.3in /  993.1hPa West 18.6mph /  29.9km/h 29.3mph /  47.1km/h 74% 0in /  0.0mm
17:50 51.3 °F /  10.7 °C 42.8 °F /  6.0 °C 29.3in /  993.1hPa WSW 28mph /  45.1km/h 30.4mph /  48.9km/h 74% 0in /  0.0mm
17:53 51.3 °F /  10.7 °C 42.8 °F /  6.0 °C 29.3in /  993.1hPa WSW 28.6mph /  46.0km/h 33.8mph /  54.4km/h 74% 0in /  0.0mm
17:58 51.1 °F /  10.6 °C 42.8 °F /  6.0 °C 29.3in /  993.1hPa WSW 31.8mph /  51.2km/h 33.8mph /  54.4km/h 74% 0in /  0.0mm
17:59 51.1 °F /  10.6 °C 42.8 °F /  6.0 °C 29.3in /  993.1hPa West 22.6mph /  36.4km/h 33.8mph /  54.4km/h 74% 0in /  0.0mm
18:04 50.9 °F /  10.5 °C 42.8 °F /  6.0 °C 29.3in /  993.1hPa WSW 29.3mph /  47.1km/h 33.6mph /  54.1km/h 73% 0in /  0.0mm
18:06 50.9 °F /  10.5 °C 42.8 °F /  6.0 °C 29.3in /  993.1hPa WSW 22.6mph /  36.4km/h 33.6mph /  54.1km/h 73% 0in /  0.0mm
18:11 50.5 °F /  10.3 °C 42.8 °F /  6.0 °C 29.3in /  993.1hPa WSW 24.2mph /  38.9km/h 30.6mph /  49.2km/h 73% 0in /  0.0mm
18:16 50.4 °F /  10.2 °C 42.8 °F /  6.0 °C 29.3in /  993.1hPa West 28.4mph /  45.7km/h 34.2mph /  55.0km/h 73% 0in /  0.0mm
18:19 50.5 °F /  10.3 °C 42.8 °F /  6.0 °C 29.3in /  993.1hPa SW 22.4mph /  36.0km/h 34.2mph /  55.0km/h 72% 0in /  0.0mm
18:20 50.4 °F /  10.2 °C 42.8 °F /  6.0 °C 29.3in /  993.1hPa West 22.6mph /  36.4km/h 34.2mph /  55.0km/h 72% 0in /  0.0mm
18:21 50.4 °F /  10.2 °C 42.8 °F /  6.0 °C 29.3in /  993.1hPa WSW 18.8mph /  30.2km/h 34.2mph /  55.0km/h 72% 0in /  0.0mm
18:26 50.4 °F /  10.2 °C 42.8 °F /  6.0 °C 29.4in /  994.1hPa WSW 25.7mph /  41.4km/h 35.8mph /  57.6km/h 72% 0in /  0.0mm
18:28 50.2 °F /  10.1 °C 42.8 °F /  6.0 °C 29.4in /  994.1hPa West 29.8mph /  47.9km/h 35.8mph /  57.6km/h 72% 0in /  0.0mm
18:30 50.4 °F /  10.2 °C 42.8 °F /  6.0 °C 29.4in /  994.1hPa WSW 19.2mph /  30.9km/h 35.8mph /  57.6km/h 72% 0in /  0.0mm
18:31 50.2 °F /  10.1 °C 42.8 °F /  6.0 °C 29.4in /  994.1hPa WSW 28.4mph /  45.7km/h 35.8mph /  57.6km/h 72% 0in /  0.0mm
18:37 50.2 °F /  10.1 °C 42.8 °F /  6.0 °C 29.4in /  994.1hPa West 25.9mph /  41.7km/h 34.4mph /  55.3km/h 72% 0in /  0.0mm
18:38 50.2 °F /  10.1 °C 42.8 °F /  6.0 °C 29.4in /  994.1hPa WSW 30.9mph /  49.7km/h 34.4mph /  55.3km/h 72% 0in /  0.0mm
18:43 50.2 °F /  10.1 °C 42.8 °F /  6.0 °C 29.4in /  994.1hPa West 25.3mph /  40.7km/h 30.9mph /  49.7km/h 72% 0in /  0.0mm
18:45 50.2 °F /  10.1 °C 42.8 °F /  6.0 °C 29.4in /  994.1hPa West 32.4mph /  52.1km/h 32.4mph /  52.1km/h 72% 0in /  0.0mm
18:46 50.2 °F /  10.1 °C 42.8 °F /  6.0 °C 29.4in /  994.1hPa West 14.5mph /  23.3km/h 32.4mph /  52.1km/h 72% 0in /  0.0mm
18:51 50.2 °F /  10.1 °C 42.8 °F /  6.0 °C 29.4in /  994.1hPa WSW 27.3mph /  43.9km/h 32.4mph /  52.1km/h 73% 0in /  0.0mm
18:56 50.2 °F /  10.1 °C 42.8 °F /  6.0 °C 29.4in /  994.1hPa West 22.1mph /  35.6km/h 32.2mph /  51.8km/h 73% 0in /  0.0mm
18:59 50 °F /  10.0 °C 42.8 °F /  6.0 °C 29.4in /  994.1hPa WSW 23.3mph /  37.5km/h 29.3mph /  47.1km/h 74% 0in /  0.0mm
19:04 50.2 °F /  10.1 °C 42.8 °F /  6.0 °C 29.4in /  994.1hPa WSW 25.1mph /  40.4km/h 33.1mph /  53.3km/h 74% 0in /  0.0mm
19:09 50 °F /  10.0 °C 42.8 °F /  6.0 °C 29.4in /  994.1hPa West 22.1mph /  35.6km/h 33.1mph /  53.3km/h 74% 0in /  0.0mm
19:15 50 °F /  10.0 °C 42.8 °F /  6.0 °C 29.4in /  995.1hPa West 23.3mph /  37.5km/h 25.9mph /  41.7km/h 74% 0in /  0.0mm
19:20 49.8 °F /  9.9 °C 42.8 °F /  6.0 °C 29.4in /  995.1hPa West 19.9mph /  32.0km/h 25.9mph /  41.7km/h 75% 0in /  0.0mm
19:24 49.8 °F /  9.9 °C 42.8 °F /  6.0 °C 29.4in /  995.1hPa West 15.9mph /  25.6km/h 27.1mph /  43.6km/h 75% 0in /  0.0mm
19:28 49.6 °F /  9.8 °C 42.8 °F /  6.0 °C 29.4in /  995.1hPa West 19.2mph /  30.9km/h 27.1mph /  43.6km/h 75% 0in /  0.0mm
19:30 49.6 °F /  9.8 °C 42.8 °F /  6.0 °C 29.4in /  995.1hPa West 26.4mph /  42.5km/h 27.5mph /  44.2km/h 75% 0in /  0.0mm
19:37 49.5 °F /  9.7 °C 42.8 °F /  6.0 °C 29.4in /  995.1hPa West 10.7mph /  17.2km/h 27.5mph /  44.2km/h 76% 0in /  0.0mm
19:42 49.5 °F /  9.7 °C 42.8 °F /  6.0 °C 29.4in /  995.1hPa West 23.7mph /  38.1km/h 27.3mph /  43.9km/h 75% 0in /  0.0mm
19:45 49.5 °F /  9.7 °C 42.8 °F /  6.0 °C 29.4in /  995.1hPa WSW 14.8mph /  23.8km/h 27.3mph /  43.9km/h 76% 0in /  0.0mm
19:50 49.3 °F /  9.6 °C 42.8 °F /  6.0 °C 29.4in /  995.1hPa WSW 20.6mph /  33.1km/h 27.3mph /  43.9km/h 75% 0in /  0.0mm
19:56 49.5 °F /  9.7 °C 42.8 °F /  6.0 °C 29.4in /  996.2hPa WSW 14.1mph /  22.7km/h 26.6mph /  42.8km/h 75% 0in /  0.0mm
19:57 49.3 °F /  9.6 °C 42.8 °F /  6.0 °C 29.4in /  996.2hPa West 22.1mph /  35.6km/h 26.6mph /  42.8km/h 75% 0in /  0.0mm
20:02 49.1 °F /  9.5 °C 42.8 °F /  6.0 °C 29.4in /  996.2hPa WSW 10.5mph /  16.9km/h 26.6mph /  42.8km/h 75% 0in /  0.0mm
20:07 48.9 °F /  9.4 °C 42.8 °F /  6.0 °C 29.4in /  996.2hPa WSW 22.8mph /  36.7km/h 28mph /  45.1km/h 75% 0in /  0.0mm
20:11 48.9 °F /  9.4 °C 41 °F /  5.0 °C 29.4in /  996.8hPa West 11.9mph /  19.1km/h 28mph /  45.1km/h 73% 0in /  0.0mm
20:16 48.7 °F /  9.3 °C 41 °F /  5.0 °C 29.4in /  996.8hPa WSW 12.8mph /  20.6km/h 23.7mph /  38.1km/h 73% 0in /  0.0mm
20:20 48.7 °F /  9.3 °C 41 °F /  5.0 °C 29.4in /  996.8hPa WSW 15.9mph /  25.6km/h 23.7mph /  38.1km/h 74% 0in /  0.0mm
20:21 48.6 °F /  9.2 °C 41 °F /  5.0 °C 29.4in /  996.8hPa West 14.5mph /  23.3km/h 23.7mph /  38.1km/h 74% 0in /  0.0mm
20:26 48.7 °F /  9.3 °C 41 °F /  5.0 °C 29.4in /  996.8hPa West 12.5mph /  20.1km/h 23.7mph /  38.1km/h 74% 0in /  0.0mm
20:30 48.6 °F /  9.2 °C 41 °F /  5.0 °C 29.4in /  996.8hPa West 17mph /  27.4km/h 22.6mph /  36.4km/h 73% 0in /  0.0mm
20:31 48.6 °F /  9.2 °C 41 °F /  5.0 °C 29.4in /  996.8hPa West 10.5mph /  16.9km/h 22.6mph /  36.4km/h 73% 0in /  0.0mm
20:36 48.4 °F /  9.1 °C 41 °F /  5.0 °C 29.4in /  996.8hPa WSW 16.3mph /  26.2km/h 20.6mph /  33.1km/h 73% 0in /  0.0mm
20:41 48 °F /  8.9 °C 41 °F /  5.0 °C 29.4in /  996.8hPa WSW 12.3mph /  19.8km/h 20.6mph /  33.1km/h 74% 0in /  0.0mm
20:46 48 °F /  8.9 °C 41 °F /  5.0 °C 29.4in /  996.8hPa WSW 15.2mph /  24.5km/h 20.6mph /  33.1km/h 74% 0in /  0.0mm
20:50 48 °F /  8.9 °C 41 °F /  5.0 °C 29.4in /  996.8hPa WSW 13.4mph /  21.6km/h 25.1mph /  40.4km/h 74% 0in /  0.0mm
20:56 48 °F /  8.9 °C 41 °F /  5.0 °C 29.4in /  996.8hPa WSW 17.7mph /  28.5km/h 25.1mph /  40.4km/h 74% 0in /  0.0mm
20:57 48 °F /  8.9 °C 41 °F /  5.0 °C 29.4in /  996.8hPa West 12.5mph /  20.1km/h 23.9mph /  38.5km/h 74% 0in /  0.0mm
21:03 48 °F /  8.9 °C 41 °F /  5.0 °C 29.4in /  996.8hPa WSW 15.2mph /  24.5km/h 19.9mph /  32.0km/h 74% 0in /  0.0mm
21:06 47.8 °F /  8.8 °C 41 °F /  5.0 °C 29.4in /  996.8hPa West 10.1mph /  16.3km/h 19.9mph /  32.0km/h 74% 0in /  0.0mm
21:12 47.8 °F /  8.8 °C 41 °F /  5.0 °C 29.4in /  996.8hPa West 12.5mph /  20.1km/h 23.9mph /  38.5km/h 74% 0in /  0.0mm
21:13 47.8 °F /  8.8 °C 41 °F /  5.0 °C 29.4in /  996.8hPa West 14.1mph /  22.7km/h 23.9mph /  38.5km/h 74% 0in /  0.0mm
21:17 47.8 °F /  8.8 °C 41 °F /  5.0 °C 29.4in /  996.8hPa West 11mph /  17.7km/h 24.6mph /  39.6km/h 74% 0in /  0.0mm
21:20 47.7 °F /  8.7 °C 41 °F /  5.0 °C 29.4in /  996.8hPa West 11mph /  17.7km/h 24.6mph /  39.6km/h 74% 0in /  0.0mm
21:25 47.5 °F /  8.6 °C 41 °F /  5.0 °C 29.4in /  996.8hPa West 11.2mph /  18.0km/h 17mph /  27.4km/h 74% 0in /  0.0mm
21:30 47.3 °F /  8.5 °C 41 °F /  5.0 °C 29.4in /  996.8hPa West 10.1mph /  16.3km/h 17mph /  27.4km/h 75% 0in /  0.0mm
21:44 32 °F /  0.0 °C 41 °F /  5.0 °C 0in /  0.0hPa Calm     0% 0in /  0.0mm
21:49 47.3 °F /  8.5 °C 41 °F /  5.0 °C 29.4in /  996.8hPa West 13.2mph /  21.2km/h 17.2mph /  27.7km/h 76% 0in /  0.0mm
21:51 47.3 °F /  8.5 °C 41 °F /  5.0 °C 29.4in /  996.8hPa West 19.7mph /  31.7km/h 19.7mph /  31.7km/h 76% 0in /  0.0mm
21:53 47.3 °F /  8.5 °C 41 °F /  5.0 °C 29.4in /  996.8hPa West 16.6mph /  26.7km/h 19.7mph /  31.7km/h 77% 0in /  0.0mm
21:56 47.3 °F /  8.5 °C 41 °F /  5.0 °C 29.4in /  996.8hPa WSW 12.1mph /  19.5km/h 19.7mph /  31.7km/h 77% 0in /  0.0mm
22:01 47.3 °F /  8.5 °C 41 °F /  5.0 °C 29.4in /  996.8hPa West 10.3mph /  16.6km/h 22.4mph /  36.0km/h 78% 0in /  0.0mm
22:04 47.3 °F /  8.5 °C 42.8 °F /  6.0 °C 29.4in /  996.8hPa WSW 10.7mph /  17.2km/h 22.4mph /  36.0km/h 79% 0in /  0.0mm
22:08 47.3 °F /  8.5 °C 42.8 °F /  6.0 °C 29.4in /  996.8hPa WSW 13.6mph /  21.9km/h 22.4mph /  36.0km/h 79% 0in /  0.0mm
22:09 47.3 °F /  8.5 °C 42.8 °F /  6.0 °C 29.4in /  996.8hPa West 15.7mph /  25.3km/h 22.4mph /  36.0km/h 79% 0in /  0.0mm
22:15 47.3 °F /  8.5 °C 42.8 °F /  6.0 °C 29.4in /  996.8hPa West 16.8mph /  27.0km/h 20.1mph /  32.3km/h 79% 0in /  0.0mm
22:18 47.3 °F /  8.5 °C 42.8 °F /  6.0 °C 29.4in /  996.8hPa West 12.5mph /  20.1km/h 20.1mph /  32.3km/h 79% 0in /  0.0mm
22:19 47.3 °F /  8.5 °C 42.8 °F /  6.0 °C 29.4in /  996.8hPa WSW 12.3mph /  19.8km/h 19.9mph /  32.0km/h 79% 0in /  0.0mm
22:28 47.3 °F /  8.5 °C 42.8 °F /  6.0 °C 29.4in /  996.8hPa West 11mph /  17.7km/h 19.5mph /  31.4km/h 79% 0in /  0.0mm
22:32 47.3 °F /  8.5 °C 42.8 °F /  6.0 °C 29.4in /  996.8hPa West 16.6mph /  26.7km/h 19.5mph /  31.4km/h 79% 0in /  0.0mm
22:34 47.3 °F /  8.5 °C 41 °F /  5.0 °C 29.4in /  996.8hPa WSW 10.7mph /  17.2km/h 19.5mph /  31.4km/h 78% 0in /  0.0mm
22:35 47.3 °F /  8.5 °C 41 °F /  5.0 °C 29.4in /  996.8hPa West 10.7mph /  17.2km/h 19.5mph /  31.4km/h 78% 0in /  0.0mm
22:41 47.5 °F /  8.6 °C 41 °F /  5.0 °C 29.4in /  996.8hPa West 14.3mph /  23.0km/h 17.9mph /  28.8km/h 78% 0in /  0.0mm
22:42 47.5 °F /  8.6 °C 41 °F /  5.0 °C 29.4in /  996.8hPa WSW 13mph /  20.9km/h 17.9mph /  28.8km/h 78% 0in /  0.0mm
22:44 47.5 °F /  8.6 °C 41 °F /  5.0 °C 29.4in /  996.8hPa WSW 13mph /  20.9km/h 17mph /  27.4km/h 78% 0in /  0.0mm
22:46 47.5 °F /  8.6 °C 41 °F /  5.0 °C 29.4in /  996.8hPa WSW 10.3mph /  16.6km/h 17mph /  27.4km/h 78% 0in /  0.0mm
22:50 47.5 °F /  8.6 °C 41 °F /  5.0 °C 29.4in /  996.8hPa WSW 13.2mph /  21.2km/h 17mph /  27.4km/h 78% 0in /  0.0mm
22:52 47.5 °F /  8.6 °C 41 °F /  5.0 °C 29.4in /  996.8hPa WSW 11.4mph /  18.3km/h 16.3mph /  26.2km/h 78% 0in /  0.0mm
22:54 47.5 °F /  8.6 °C 41 °F /  5.0 °C 29.4in /  996.8hPa West 5.6mph /  9.0km/h 16.3mph /  26.2km/h 78% 0in /  0.0mm
22:55 47.5 °F /  8.6 °C 41 °F /  5.0 °C 29.4in /  996.8hPa WSW 7.8mph /  12.6km/h 16.3mph /  26.2km/h 78% 0in /  0.0mm
23:00 47.3 °F /  8.5 °C 42.8 °F /  6.0 °C 29.4in /  996.2hPa WSW 7.8mph /  12.6km/h 14.1mph /  22.7km/h 79% 0in /  0.0mm
23:05 47.1 °F /  8.4 °C 41 °F /  5.0 °C 29.4in /  996.2hPa WSW 8.7mph /  14.0km/h 13.2mph /  21.2km/h 79% 0in /  0.0mm
23:10 46.9 °F /  8.3 °C 42.8 °F /  6.0 °C 29.4in /  996.2hPa WSW 9.8mph /  15.8km/h 13mph /  20.9km/h 80% 0in /  0.0mm
23:14 46.8 °F /  8.2 °C 41 °F /  5.0 °C 29.4in /  996.8hPa West 6mph /  9.7km/h 13mph /  20.9km/h 81% 0in /  0.0mm
23:19 46.6 °F /  8.1 °C 41 °F /  5.0 °C 29.4in /  996.8hPa WSW 7.4mph /  11.9km/h 12.3mph /  19.8km/h 81% 0in /  0.0mm
23:24 46.6 °F /  8.1 °C 42.8 °F /  6.0 °C 29.4in /  996.8hPa WSW 7.6mph /  12.2km/h 11mph /  17.7km/h 82% 0in /  0.0mm
23:29 46.8 °F /  8.2 °C 42.8 °F /  6.0 °C 29.4in /  996.8hPa WSW 8.7mph /  14.0km/h 11.4mph /  18.3km/h 83% 0in /  0.0mm
23:34 46.9 °F /  8.3 °C 42.8 °F /  6.0 °C 29.4in /  996.8hPa WSW 8.1mph /  13.0km/h 13.2mph /  21.2km/h 83% 0in /  0.0mm
23:35 46.9 °F /  8.3 °C 42.8 °F /  6.0 °C 29.4in /  996.8hPa SW 8.7mph /  14.0km/h 13.2mph /  21.2km/h 83% 0in /  0.0mm
23:40 46.9 °F /  8.3 °C 42.8 °F /  6.0 °C 29.4in /  996.8hPa SSW 8.5mph /  13.7km/h 13mph /  20.9km/h 83% 0in /  0.0mm
23:45 47.1 °F /  8.4 °C 42.8 °F /  6.0 °C 29.4in /  996.8hPa SSW 7.4mph /  11.9km/h 13mph /  20.9km/h 82% 0in /  0.0mm
23:50 47.1 °F /  8.4 °C 42.8 °F /  6.0 °C 29.4in /  996.8hPa SW 8.7mph /  14.0km/h 12.1mph /  19.5km/h 82% 0in /  0.0mm
23:53 47.3 °F /  8.5 °C 42.8 °F /  6.0 °C 29.4in /  996.8hPa SW 8.1mph /  13.0km/h 12.1mph /  19.5km/h 83% 0in /  0.0mm
23:58 47.3 °F /  8.5 °C 42.8 °F /  6.0 °C 29.4in /  996.8hPa WSW 8.7mph /  14.0km/h 11mph /  17.7km/h 83% 0in /  0.0mm
Données Historique de Météo Turbie

Mise a jour : 24/05/2018 15:34:22
Généré par Cumulus 1.9.4 (1099)